createdAt,value
2023-03-25T00:00:39.605Z,2.72
2023-03-25T00:05:41.674Z,4.03
2023-03-25T00:10:43.432Z,2.38
2023-03-25T00:15:45.832Z,2.15
2023-03-25T00:20:51.025Z,6.13
2023-03-25T00:25:53.697Z,5.53
2023-03-25T00:30:58.245Z,2.58
2023-03-25T00:36:00.260Z,2.70
2023-03-25T00:41:28.525Z,4.60
2023-03-25T00:46:34.020Z,4.22
2023-03-25T00:51:35.834Z,6.15
2023-03-25T00:56:55.639Z,3.13
2023-03-25T01:01:57.730Z,5.47
2023-03-25T01:07:01.699Z,3.53
2023-03-25T01:12:03.566Z,4.97
2023-03-25T01:17:05.910Z,3.95
2023-03-25T01:22:07.914Z,2.83
2023-03-25T01:27:09.827Z,5.78
2023-03-25T01:32:11.762Z,9.00
2023-03-25T01:37:13.587Z,6.53
2023-03-25T01:42:15.516Z,4.57
2023-03-25T01:47:17.907Z,5.38
2023-03-25T01:52:25.447Z,5.43
2023-03-25T01:57:27.900Z,5.00
2023-03-25T02:02:36.672Z,7.32
2023-03-25T02:07:43.053Z,6.28
2023-03-25T02:12:47.456Z,5.60
2023-03-25T02:18:11.389Z,8.88
2023-03-25T02:23:28.473Z,5.43
2023-03-25T02:29:07.585Z,7.53
2023-03-25T02:34:37.953Z,4.45
2023-03-25T02:40:08.131Z,7.38
2023-03-25T02:45:26.918Z,9.95
2023-03-25T02:50:34.600Z,6.97
2023-03-25T02:55:38.068Z,7.10
2023-03-25T03:00:40.154Z,10.50
2023-03-25T03:05:45.570Z,8.57
2023-03-25T03:11:05.200Z,7.97
2023-03-25T03:16:36.910Z,4.60
2023-03-25T03:21:51.568Z,4.75
2023-03-25T03:27:09.272Z,7.20
2023-03-25T03:32:21.951Z,8.32
2023-03-25T03:37:33.493Z,5.13
2023-03-25T03:42:42.462Z,10.35
2023-03-25T03:47:49.893Z,6.90
2023-03-25T03:53:02.119Z,5.75
2023-03-25T03:58:16.788Z,6.60
2023-03-25T04:03:24.902Z,8.02
2023-03-25T04:08:34.147Z,10.88
2023-03-25T04:13:40.398Z,13.25
2023-03-25T04:18:43.521Z,15.80
2023-03-25T04:23:46.246Z,9.90
2023-03-25T04:28:48.047Z,6.80
2023-03-25T04:33:50.688Z,7.75
2023-03-25T04:38:53.189Z,6.63
2023-03-25T04:43:55.192Z,8.75
2023-03-25T04:48:57.933Z,8.98
2023-03-25T04:53:59.921Z,9.35
2023-03-25T04:59:01.819Z,7.32
2023-03-25T05:04:05.413Z,10.73
2023-03-25T05:09:10.189Z,12.93
2023-03-25T05:14:14.210Z,10.23
2023-03-25T05:19:18.849Z,7.00
2023-03-25T05:24:20.801Z,6.20
2023-03-25T05:29:22.845Z,8.25
2023-03-25T05:34:25.941Z,9.18
2023-03-25T05:39:27.787Z,4.53
2023-03-25T05:44:29.566Z,7.78
2023-03-25T05:49:31.306Z,9.73
2023-03-25T05:54:33.056Z,9.25
2023-03-25T05:59:38.861Z,7.78
2023-03-25T06:04:43.918Z,9.13
2023-03-25T06:09:54.206Z,5.60
2023-03-25T06:14:56.071Z,8.70
2023-03-25T06:19:57.812Z,7.80
2023-03-25T06:25:00.750Z,6.57
2023-03-25T06:30:04.500Z,12.85
2023-03-25T06:35:09.201Z,10.45
2023-03-25T06:40:11.636Z,11.70
2023-03-25T06:45:13.725Z,9.52
2023-03-25T06:50:15.634Z,14.30
2023-03-25T06:55:17.422Z,6.55
2023-03-25T07:00:23.459Z,7.07
2023-03-25T07:05:26.316Z,13.05
2023-03-25T07:10:28.331Z,9.98
2023-03-25T07:15:30.180Z,14.95
2023-03-25T07:20:31.924Z,9.55
2023-03-25T07:25:33.654Z,10.77
2023-03-25T07:30:35.583Z,10.68
2023-03-25T07:35:37.442Z,8.40
2023-03-25T07:40:39.422Z,16.75
2023-03-25T07:45:44.143Z,26.73
2023-03-25T07:50:58.065Z,11.10
2023-03-25T07:55:59.830Z,11.45
2023-03-25T08:01:02.203Z,13.18
2023-03-25T08:06:04.494Z,18.85
2023-03-25T08:11:06.836Z,11.68
2023-03-25T08:16:13.394Z,15.20
2023-03-25T08:21:15.303Z,15.10
2023-03-25T08:26:17.222Z,12.45
2023-03-25T08:31:20.711Z,12.68
2023-03-25T08:36:23.346Z,18.65
2023-03-25T08:41:25.556Z,22.63
2023-03-25T08:46:27.324Z,15.88
2023-03-25T08:51:29.149Z,15.82
2023-03-25T08:56:30.992Z,7.40
2023-03-25T09:01:33.339Z,12.40
2023-03-25T09:06:47.719Z,19.08
2023-03-25T09:11:50.369Z,8.70
2023-03-25T09:16:52.131Z,14.23
2023-03-25T09:21:54.370Z,18.10
2023-03-25T09:26:56.111Z,18.48
2023-03-25T09:31:59.620Z,20.42
2023-03-25T09:37:04.504Z,16.75
2023-03-25T09:42:27.816Z,10.52
2023-03-25T09:47:33.513Z,12.45
2023-03-25T09:52:39.002Z,10.55
2023-03-25T09:57:51.491Z,20.48
2023-03-25T10:03:27.113Z,17.65
2023-03-25T10:08:59.705Z,12.32
2023-03-25T10:14:04.265Z,12.85
2023-03-25T10:19:40.197Z,15.90
2023-03-25T10:25:08.214Z,12.13
2023-03-25T10:30:10.268Z,10.32
2023-03-25T10:35:18.656Z,17.83
2023-03-25T10:40:24.169Z,16.90
2023-03-25T10:45:28.349Z,16.45
2023-03-25T10:50:30.699Z,12.77
2023-03-25T10:55:36.166Z,18.33
2023-03-25T11:00:38.109Z,5.82
2023-03-25T11:05:41.336Z,14.10
2023-03-25T11:10:48.611Z,17.67
2023-03-25T11:15:54.569Z,10.25
2023-03-25T11:21:14.492Z,8.38
2023-03-25T11:26:23.718Z,11.52
2023-03-25T11:31:27.619Z,16.13
2023-03-25T11:36:31.679Z,10.98
2023-03-25T11:41:36.751Z,16.15
2023-03-25T11:46:43.190Z,9.55
2023-03-25T11:51:45.357Z,11.40
2023-03-25T11:56:49.657Z,10.18
2023-03-25T12:02:03.027Z,19.73
2023-03-25T12:07:10.122Z,8.10
2023-03-25T12:12:35.072Z,7.43
2023-03-25T12:17:48.207Z,7.53
2023-03-25T12:22:50.465Z,15.18
2023-03-25T12:28:16.465Z,15.50
2023-03-25T12:33:22.222Z,12.32
2023-03-25T12:38:42.288Z,7.88
2023-03-25T12:43:57.698Z,12.98
2023-03-25T12:49:19.052Z,15.48
2023-03-25T12:55:05.922Z,14.63
2023-03-25T13:00:41.850Z,16.33
2023-03-25T13:05:54.674Z,8.25
2023-03-25T13:11:02.970Z,12.35
2023-03-25T13:16:09.258Z,14.48
2023-03-25T13:21:21.691Z,17.15
2023-03-25T13:26:26.644Z,11.48
2023-03-25T13:31:36.016Z,15.23
2023-03-25T13:36:50.688Z,11.98
2023-03-25T13:42:12.935Z,16.95
2023-03-25T13:47:25.455Z,14.40
2023-03-25T13:52:34.070Z,15.50
2023-03-25T13:57:41.864Z,11.77
2023-03-25T14:03:31.241Z,6.65
2023-03-25T14:08:59.319Z,17.20
2023-03-25T14:14:07.084Z,7.18
2023-03-25T14:19:15.762Z,14.80
2023-03-25T14:24:33.051Z,8.05
2023-03-25T14:29:40.697Z,10.05
2023-03-25T14:34:44.157Z,5.93
2023-03-25T14:39:46.159Z,12.43
2023-03-25T14:44:54.226Z,10.52
2023-03-25T14:50:05.578Z,8.27
2023-03-25T14:55:26.153Z,10.10
2023-03-25T15:00:34.060Z,7.82
2023-03-25T15:05:37.297Z,12.32
2023-03-25T15:10:44.620Z,9.82
2023-03-25T15:15:46.601Z,9.65
2023-03-25T15:20:48.486Z,10.38
2023-03-25T15:25:54.767Z,11.15
2023-03-25T15:31:20.419Z,8.05
2023-03-25T15:36:38.986Z,11.15
2023-03-25T15:41:49.568Z,8.25
2023-03-25T15:47:34.255Z,8.05
2023-03-25T15:52:51.166Z,9.25
2023-03-25T15:58:11.960Z,7.45
2023-03-25T16:08:28.211Z,11.57
2023-03-25T16:13:30.119Z,13.32
2023-03-25T16:18:32.002Z,8.05
2023-03-25T16:23:36.785Z,16.73
2023-03-25T16:28:46.311Z,12.30
2023-03-25T16:33:48.581Z,18.23
2023-03-25T16:38:50.497Z,11.10
2023-03-25T16:43:53.549Z,13.55
2023-03-25T16:48:57.200Z,12.02
2023-03-25T16:54:02.060Z,13.35
2023-03-25T16:59:14.184Z,21.25
2023-03-25T17:04:19.484Z,10.63
2023-03-25T17:09:26.626Z,10.52
2023-03-25T17:14:37.769Z,13.75
2023-03-25T17:19:46.445Z,20.27
2023-03-25T17:24:56.725Z,12.15
2023-03-25T17:30:00.576Z,15.95
2023-03-25T17:35:06.711Z,18.45
2023-03-25T17:40:11.661Z,20.33
2023-03-25T17:45:17.299Z,15.32
2023-03-25T17:50:22.188Z,28.63
2023-03-25T17:55:23.940Z,25.90
2023-03-25T18:00:25.776Z,16.27
2023-03-25T18:05:27.699Z,23.08
2023-03-25T18:10:31.219Z,27.90
2023-03-25T18:15:33.198Z,28.10
2023-03-25T18:20:37.478Z,18.25
2023-03-25T18:25:40.782Z,19.80
2023-03-25T18:30:44.068Z,29.10
2023-03-25T18:35:46.781Z,27.75
2023-03-25T18:40:49.237Z,14.85
2023-03-25T18:45:51.153Z,21.17
2023-03-25T18:50:57.785Z,18.20
2023-03-25T18:56:02.008Z,18.75
2023-03-25T19:01:07.471Z,15.65
2023-03-25T19:06:12.194Z,14.10
2023-03-25T19:11:21.022Z,14.52
2023-03-25T19:16:24.131Z,25.92
2023-03-25T19:21:25.907Z,11.82
2023-03-25T19:26:28.190Z,24.80
2023-03-25T19:31:30.743Z,14.65
2023-03-25T19:36:35.589Z,17.73
2023-03-25T19:41:42.621Z,14.57
2023-03-25T19:46:44.372Z,19.25
2023-03-25T19:51:46.189Z,16.35
2023-03-25T19:56:48.079Z,16.60
2023-03-25T20:01:50.120Z,22.50
2023-03-25T20:06:51.994Z,18.90
2023-03-25T20:11:54.162Z,15.88
2023-03-25T20:16:56.062Z,25.42
2023-03-25T20:21:57.914Z,20.45
2023-03-25T20:26:59.863Z,17.65
2023-03-25T20:32:01.772Z,17.52
2023-03-25T20:37:03.744Z,19.92
2023-03-25T20:42:06.324Z,19.17
2023-03-25T20:47:09.408Z,21.88
2023-03-25T20:52:11.506Z,11.75
2023-03-25T20:57:13.551Z,26.13
2023-03-25T21:02:16.920Z,22.17
2023-03-25T21:07:19.487Z,23.25
2023-03-25T21:12:27.134Z,27.40
2023-03-25T21:17:35.659Z,24.85
2023-03-25T21:22:42.858Z,19.83
2023-03-25T21:27:46.624Z,21.98
2023-03-25T21:32:48.516Z,19.58
2023-03-25T21:37:51.684Z,17.05
2023-03-25T21:42:53.465Z,16.55
2023-03-25T21:47:55.404Z,20.77
2023-03-25T21:52:57.391Z,27.73
2023-03-25T21:57:59.522Z,12.30
2023-03-25T22:03:01.376Z,21.70
2023-03-25T22:08:03.218Z,22.33
2023-03-25T22:13:04.982Z,17.60
2023-03-25T22:18:06.969Z,22.35
2023-03-25T22:23:10.487Z,21.80
2023-03-25T22:28:12.248Z,23.00
2023-03-25T22:33:14.013Z,20.40
2023-03-25T22:38:15.778Z,17.55
2023-03-25T22:43:17.762Z,17.95
2023-03-25T22:48:19.500Z,24.60
2023-03-25T22:53:21.633Z,20.55
2023-03-25T22:58:26.006Z,27.75
2023-03-25T23:03:28.878Z,17.95
2023-03-25T23:08:33.249Z,18.90
2023-03-25T23:13:35.662Z,17.98
2023-03-25T23:18:38.309Z,23.73
2023-03-25T23:23:53.401Z,32.20
2023-03-25T23:29:00.705Z,23.92
2023-03-25T23:34:06.932Z,25.17
2023-03-25T23:39:12.296Z,26.45
2023-03-25T23:44:14.068Z,27.23
2023-03-25T23:49:18.031Z,20.23
2023-03-25T23:54:19.842Z,23.42
2023-03-25T23:59:21.990Z,17.67
